createdAt,value
2017-10-23T00:00:18.636Z,999.82
2017-10-23T00:01:18.629Z,999.83
2017-10-23T00:02:18.621Z,999.85
2017-10-23T00:03:18.603Z,999.85
2017-10-23T00:04:18.724Z,999.82
2017-10-23T00:05:18.572Z,999.79
2017-10-23T00:06:18.543Z,999.84
2017-10-23T00:07:18.542Z,999.77
2017-10-23T00:08:18.513Z,999.78
2017-10-23T00:09:18.509Z,999.76
2017-10-23T00:10:18.993Z,999.77
2017-10-23T00:11:18.474Z,999.75
2017-10-23T00:12:18.469Z,999.74
2017-10-23T00:13:18.451Z,999.75
2017-10-23T00:14:18.431Z,999.84
2017-10-23T00:15:18.420Z,999.75
2017-10-23T00:16:18.477Z,999.75
2017-10-23T00:17:18.395Z,999.70
2017-10-23T00:18:18.363Z,999.74
2017-10-23T00:19:18.360Z,999.72
2017-10-23T00:20:18.368Z,999.73
2017-10-23T00:21:18.331Z,999.70
2017-10-23T00:22:18.380Z,999.72
2017-10-23T00:23:18.301Z,999.75
2017-10-23T00:24:18.288Z,999.74
2017-10-23T00:25:18.267Z,999.77
2017-10-23T00:26:18.251Z,999.78
2017-10-23T00:27:18.241Z,999.81
2017-10-23T00:28:18.377Z,999.80
2017-10-23T00:29:18.210Z,999.75
2017-10-23T00:30:18.200Z,999.79
2017-10-23T00:31:18.170Z,999.74
2017-10-23T00:32:18.171Z,999.79
2017-10-23T00:33:18.155Z,999.79
2017-10-23T00:34:18.564Z,999.78
2017-10-23T00:35:18.135Z,999.84
2017-10-23T00:36:18.102Z,999.78
2017-10-23T00:37:18.094Z,999.83
2017-10-23T00:38:18.079Z,999.76
2017-10-23T00:39:18.060Z,999.81
2017-10-23T00:40:18.112Z,999.87
2017-10-23T00:41:18.043Z,999.87
2017-10-23T00:42:18.018Z,999.85
2017-10-23T00:43:18.002Z,999.87
2017-10-23T00:44:17.989Z,999.85
2017-10-23T00:45:17.966Z,999.88
2017-10-23T00:46:18.016Z,999.83
2017-10-23T00:47:17.945Z,999.84
2017-10-23T00:48:17.924Z,999.85
2017-10-23T00:49:17.917Z,999.86
2017-10-23T00:50:17.893Z,999.84
2017-10-23T00:51:17.880Z,999.81
2017-10-23T00:52:17.974Z,999.82
2017-10-23T00:53:17.880Z,999.86
2017-10-23T00:54:17.846Z,999.83
2017-10-23T00:55:17.840Z,999.83
2017-10-23T00:56:17.807Z,999.85
2017-10-23T00:57:17.795Z,999.90
2017-10-23T00:58:17.822Z,999.86
2017-10-23T00:59:17.760Z,999.87
2017-10-23T01:00:17.798Z,999.90
2017-10-23T01:01:17.734Z,999.90
2017-10-23T01:02:17.725Z,999.86
2017-10-23T01:03:17.714Z,999.85
2017-10-23T01:04:17.701Z,999.91
2017-10-23T01:05:17.734Z,999.89
2017-10-23T01:06:17.647Z,999.91
2017-10-23T01:07:17.651Z,999.92
2017-10-23T01:08:17.627Z,999.93
2017-10-23T01:09:17.607Z,999.87
2017-10-23T01:10:17.619Z,999.91
2017-10-23T01:11:17.930Z,999.91
2017-10-23T01:12:17.585Z,999.86
2017-10-23T01:13:17.561Z,999.89
2017-10-23T01:14:17.540Z,999.91
2017-10-23T01:15:17.528Z,999.91
2017-10-23T01:16:17.507Z,999.92
2017-10-23T01:17:17.562Z,999.90
2017-10-23T01:18:17.482Z,999.89
2017-10-23T01:19:17.465Z,999.90
2017-10-23T01:20:17.451Z,999.88
2017-10-23T01:21:17.441Z,999.92
2017-10-23T01:22:17.415Z,999.89
2017-10-23T01:23:17.582Z,999.89
2017-10-23T01:24:17.386Z,999.98
2017-10-23T01:25:17.376Z,999.92
2017-10-23T01:26:17.364Z,999.96
2017-10-23T01:27:17.360Z,999.97
2017-10-23T01:28:17.337Z,999.93
2017-10-23T01:29:17.671Z,999.83
2017-10-23T01:30:17.306Z,999.88
2017-10-23T01:31:17.298Z,999.88
2017-10-23T01:32:17.408Z,999.89
2017-10-23T01:33:17.260Z,999.86
2017-10-23T01:34:17.242Z,999.88
2017-10-23T01:35:17.268Z,999.88
2017-10-23T01:36:17.213Z,999.91
2017-10-23T01:37:17.197Z,999.87
2017-10-23T01:38:17.200Z,999.82
2017-10-23T01:39:17.257Z,999.82
2017-10-23T01:40:17.152Z,999.90
2017-10-23T01:41:17.146Z,999.85
2017-10-23T01:42:17.131Z,999.85
2017-10-23T01:43:17.113Z,999.86
2017-10-23T01:44:17.097Z,999.86
2017-10-23T01:45:17.127Z,999.85
2017-10-23T01:46:17.081Z,999.86
2017-10-23T01:47:17.055Z,999.90
2017-10-23T01:48:17.032Z,999.88
2017-10-23T01:49:17.014Z,999.90
2017-10-23T01:50:17.089Z,999.90
2017-10-23T01:51:17.140Z,999.89
2017-10-23T01:52:16.978Z,999.90
2017-10-23T01:53:16.963Z,999.93
2017-10-23T01:54:16.940Z,999.94
2017-10-23T01:55:16.946Z,999.92
2017-10-23T01:56:16.931Z,999.90
2017-10-23T01:57:17.251Z,999.91
2017-10-23T01:58:16.904Z,999.86
2017-10-23T01:59:17.004Z,999.95
2017-10-23T02:00:16.891Z,999.96
2017-10-23T02:01:16.847Z,999.93
2017-10-23T02:02:16.830Z,999.94
2017-10-23T02:03:16.887Z,1000.00
2017-10-23T02:04:16.796Z,999.95
2017-10-23T02:05:16.794Z,999.93
2017-10-23T02:06:16.781Z,999.95
2017-10-23T02:07:17.444Z,999.98
2017-10-23T02:08:16.748Z,999.97
2017-10-23T02:09:16.818Z,999.92
2017-10-23T02:10:16.744Z,999.95
2017-10-23T02:11:16.719Z,999.96
2017-10-23T02:12:16.681Z,999.94
2017-10-23T02:13:16.666Z,999.94
2017-10-23T02:14:16.659Z,999.98
2017-10-23T02:15:16.780Z,999.97
2017-10-23T02:16:16.611Z,1000.00
2017-10-23T02:17:16.604Z,999.94
2017-10-23T02:18:16.590Z,999.96
2017-10-23T02:19:16.586Z,999.94
2017-10-23T02:20:16.572Z,999.91
2017-10-23T02:21:16.587Z,999.96
2017-10-23T02:22:16.544Z,999.96
2017-10-23T02:23:16.617Z,1000.02
2017-10-23T02:24:16.680Z,999.92
2017-10-23T02:25:16.481Z,999.98
2017-10-23T02:26:16.477Z,999.97
2017-10-23T02:27:16.466Z,999.99
2017-10-23T02:28:16.448Z,1000.00
2017-10-23T02:29:16.432Z,999.95
2017-10-23T02:30:16.453Z,999.96
2017-10-23T02:31:16.488Z,999.91
2017-10-23T02:32:16.389Z,999.95
2017-10-23T02:33:16.368Z,1000.06
2017-10-23T02:34:16.525Z,1000.00
2017-10-23T02:35:16.340Z,1000.00
2017-10-23T02:36:16.338Z,1000.01
2017-10-23T02:37:16.316Z,999.98
2017-10-23T02:38:16.291Z,1000.03
2017-10-23T02:39:16.290Z,999.97
2017-10-23T02:40:16.323Z,999.96
2017-10-23T02:41:16.261Z,1000.00
2017-10-23T02:42:16.245Z,999.96
2017-10-23T02:43:16.229Z,999.98
2017-10-23T02:44:16.214Z,999.95
2017-10-23T02:45:16.200Z,999.98
2017-10-23T02:46:16.267Z,999.95
2017-10-23T02:47:16.167Z,999.96
2017-10-23T02:48:16.154Z,999.97
2017-10-23T02:49:16.140Z,999.97
2017-10-23T02:50:16.127Z,1000.02
2017-10-23T02:51:16.108Z,1000.01
2017-10-23T02:52:16.126Z,1000.08
2017-10-23T02:53:16.089Z,1000.04
2017-10-23T02:54:16.060Z,999.98
2017-10-23T02:55:16.047Z,1000.02
2017-10-23T02:56:16.089Z,999.99
2017-10-23T02:57:16.020Z,1000.00
2017-10-23T02:58:15.995Z,1000.00
2017-10-23T02:59:15.996Z,1000.10
2017-10-23T03:00:15.988Z,1000.06
2017-10-23T03:01:15.961Z,1000.08
2017-10-23T03:02:16.070Z,1000.08
2017-10-23T03:03:15.920Z,1000.04
2017-10-23T03:04:15.904Z,1000.11
2017-10-23T03:05:15.890Z,1000.14
2017-10-23T03:06:15.886Z,1000.05
2017-10-23T03:07:15.868Z,1000.13
2017-10-23T03:08:16.000Z,1000.06
2017-10-23T03:09:15.841Z,1000.14
2017-10-23T03:10:15.823Z,1000.10
2017-10-23T03:11:15.808Z,1000.10
2017-10-23T03:12:15.798Z,1000.13
2017-10-23T03:13:15.775Z,1000.12
2017-10-23T03:14:16.034Z,1000.12
2017-10-23T03:15:15.748Z,1000.11
2017-10-23T03:16:15.739Z,1000.15
2017-10-23T03:17:15.745Z,1000.15
2017-10-23T03:18:15.713Z,1000.16
2017-10-23T03:19:15.690Z,1000.15
2017-10-23T03:20:15.756Z,1000.15
2017-10-23T03:21:15.661Z,1000.14
2017-10-23T03:22:15.645Z,1000.16
2017-10-23T03:23:15.680Z,1000.25
2017-10-23T03:24:15.630Z,1000.14
2017-10-23T03:25:15.589Z,1000.18
2017-10-23T03:26:15.733Z,1000.18
2017-10-23T03:27:15.566Z,1000.20
2017-10-23T03:28:15.558Z,1000.22
2017-10-23T03:29:15.556Z,1000.27
2017-10-23T03:30:15.529Z,1000.28
2017-10-23T03:31:15.518Z,1000.21
2017-10-23T03:32:15.554Z,1000.28
2017-10-23T03:33:15.480Z,1000.26
2017-10-23T03:34:15.467Z,1000.27
2017-10-23T03:35:15.532Z,1000.33
2017-10-23T03:36:15.433Z,1000.26
2017-10-23T03:37:15.421Z,1000.28
2017-10-23T03:38:15.834Z,1000.30
2017-10-23T03:39:15.394Z,1000.33
2017-10-23T03:40:15.381Z,1000.29
2017-10-23T03:41:15.368Z,1000.33
2017-10-23T03:42:15.351Z,1000.31
2017-10-23T03:43:15.330Z,1000.29
2017-10-23T03:44:15.345Z,1000.35
2017-10-23T03:45:15.320Z,1000.39
2017-10-23T03:46:15.294Z,1000.36
2017-10-23T03:47:15.737Z,1000.35
2017-10-23T03:48:15.257Z,1000.34
2017-10-23T03:49:15.243Z,1000.34
2017-10-23T03:50:15.239Z,1000.37
2017-10-23T03:51:15.225Z,1000.39
2017-10-23T03:52:15.203Z,1000.38
2017-10-23T03:53:15.249Z,1000.40
2017-10-23T03:54:15.178Z,1000.40
2017-10-23T03:55:15.158Z,1000.44
2017-10-23T03:56:15.152Z,1000.41
2017-10-23T03:57:15.129Z,1000.39
2017-10-23T03:58:15.121Z,1000.44
2017-10-23T03:59:15.135Z,1000.38
2017-10-23T04:00:15.076Z,1000.41
2017-10-23T04:01:15.076Z,1000.42
2017-10-23T04:02:15.190Z,1000.44
2017-10-23T04:03:15.032Z,1000.40
2017-10-23T04:04:15.028Z,1000.39
2017-10-23T04:05:15.010Z,1000.40
2017-10-23T04:06:14.995Z,1000.40
2017-10-23T04:07:14.980Z,1000.40
2017-10-23T04:08:15.025Z,1000.44
2017-10-23T04:09:14.964Z,1000.47
2017-10-23T04:10:14.934Z,1000.43
2017-10-23T04:11:14.925Z,1000.48
2017-10-23T04:12:14.900Z,1000.48
2017-10-23T04:13:14.901Z,1000.46
2017-10-23T04:14:15.018Z,1000.46
2017-10-23T04:15:14.870Z,1000.46
2017-10-23T04:16:14.855Z,1000.54
2017-10-23T04:17:14.838Z,1000.53
2017-10-23T04:18:14.821Z,1000.54
2017-10-23T04:19:14.811Z,1000.51
2017-10-23T04:20:14.830Z,1000.51
2017-10-23T04:21:14.767Z,1000.53
2017-10-23T04:22:15.037Z,1000.54
2017-10-23T04:23:14.770Z,1000.53
2017-10-23T04:24:14.729Z,1000.53
2017-10-23T04:25:14.710Z,1000.60
2017-10-23T04:26:14.732Z,1000.56
2017-10-23T04:27:14.686Z,1000.53
2017-10-23T04:28:14.727Z,1000.53
2017-10-23T04:29:14.666Z,1000.59
2017-10-23T04:30:14.643Z,1000.60
2017-10-23T04:31:14.625Z,1000.58
2017-10-23T04:32:14.634Z,1000.58
2017-10-23T04:33:14.607Z,1000.58
2017-10-23T04:34:15.025Z,1000.53
2017-10-23T04:35:14.569Z,1000.59
2017-10-23T04:36:14.561Z,1000.57
2017-10-23T04:37:14.534Z,1000.64
2017-10-23T04:38:14.528Z,1000.63
2017-10-23T04:39:14.505Z,1000.62
2017-10-23T04:40:14.936Z,1000.59
2017-10-23T04:41:14.479Z,1000.59
2017-10-23T04:42:14.473Z,1000.56
2017-10-23T04:43:14.471Z,1000.57
2017-10-23T04:44:14.648Z,1000.58
2017-10-23T04:45:14.433Z,1000.55
2017-10-23T04:46:14.998Z,1000.60
2017-10-23T04:47:14.400Z,1000.53
2017-10-23T04:48:14.380Z,1000.63
2017-10-23T04:49:14.383Z,1000.67
2017-10-23T04:50:16.978Z,1000.65
2017-10-23T04:51:14.372Z,1000.66
2017-10-23T04:52:14.371Z,1000.70
2017-10-23T04:53:15.002Z,1000.67
2017-10-23T04:54:14.292Z,1000.74
2017-10-23T04:55:14.294Z,1000.67
2017-10-23T04:56:14.270Z,1000.68
2017-10-23T04:57:14.555Z,1000.65
2017-10-23T04:58:14.294Z,1000.61
2017-10-23T04:59:14.218Z,1000.59
2017-10-23T05:00:14.213Z,1000.57
2017-10-23T05:04:05.969Z,1000.59
2017-10-23T05:05:05.318Z,1000.58
2017-10-23T05:06:05.097Z,1000.62
2017-10-23T05:07:05.036Z,1000.61
2017-10-23T05:08:05.592Z,1000.66
2017-10-23T05:09:05.040Z,1000.65
2017-10-23T05:10:05.077Z,1000.61
2017-10-23T05:11:04.969Z,1000.62
2017-10-23T05:12:05.403Z,1000.62
2017-10-23T05:13:05.600Z,1000.60
2017-10-23T05:14:04.935Z,1000.65
2017-10-23T05:15:04.914Z,1000.65
2017-10-23T05:16:05.279Z,1000.60
2017-10-23T05:17:04.887Z,1000.62
2017-10-23T05:18:04.910Z,1000.68
2017-10-23T05:19:04.863Z,1000.62
2017-10-23T05:20:04.960Z,1000.66
2017-10-23T05:21:04.831Z,1000.73
2017-10-23T05:22:05.862Z,1000.71
2017-10-23T05:23:04.804Z,1000.70
2017-10-23T05:24:04.863Z,1000.59
2017-10-23T05:25:04.967Z,1000.68
2017-10-23T05:26:04.757Z,1000.64
2017-10-23T05:27:06.923Z,1000.72
2017-10-23T05:28:05.958Z,1000.67
2017-10-23T05:29:04.717Z,1000.68
2017-10-23T05:30:04.712Z,1000.68
2017-10-23T05:31:04.689Z,1000.71
2017-10-23T05:32:04.772Z,1000.73
2017-10-23T05:33:04.816Z,1000.70
2017-10-23T05:34:05.427Z,1000.75
2017-10-23T05:35:04.630Z,1000.70
2017-10-23T05:36:04.616Z,1000.73
2017-10-23T05:37:04.932Z,1000.77
2017-10-23T05:38:04.592Z,1000.68
2017-10-23T05:39:04.569Z,1000.74
2017-10-23T05:40:05.135Z,1000.75
2017-10-23T05:41:04.545Z,1000.79
2017-10-23T05:42:04.746Z,1000.73
2017-10-23T05:43:04.504Z,1000.73
2017-10-23T05:44:05.209Z,1000.78
2017-10-23T05:45:04.728Z,1000.82
2017-10-23T05:46:05.129Z,1000.80
2017-10-23T05:47:04.438Z,1000.87
2017-10-23T05:48:05.132Z,1000.82
2017-10-23T05:49:04.409Z,1000.88
2017-10-23T05:50:06.228Z,1000.88
2017-10-23T05:51:04.539Z,1000.82
2017-10-23T05:52:04.445Z,1000.90
2017-10-23T05:53:04.410Z,1000.93
2017-10-23T05:54:04.770Z,1000.87
2017-10-23T05:55:04.326Z,1000.98
2017-10-23T05:56:05.254Z,1000.91
2017-10-23T05:57:04.854Z,1000.94
2017-10-23T05:58:04.304Z,1000.96
2017-10-23T05:59:04.264Z,1000.93
2017-10-23T06:00:04.325Z,1001.01
2017-10-23T06:01:04.259Z,1001.03
2017-10-23T06:02:04.243Z,1000.99
2017-10-23T06:03:04.635Z,1001.02
2017-10-23T06:04:04.213Z,1000.99
2017-10-23T06:05:04.403Z,1001.03
2017-10-23T06:06:05.125Z,1000.96
2017-10-23T06:07:04.161Z,1000.98
2017-10-23T06:08:04.158Z,1000.97
2017-10-23T06:09:04.558Z,1000.95
2017-10-23T06:10:04.142Z,1000.96
2017-10-23T06:11:06.916Z,1000.97
2017-10-23T06:12:04.081Z,1001.08
2017-10-23T06:13:04.057Z,1001.01
2017-10-23T06:14:26.442Z,1001.00
2017-10-23T06:15:04.033Z,1000.99
2017-10-23T06:16:04.020Z,1001.04
2017-10-23T06:17:04.024Z,1001.04
2017-10-23T06:18:03.988Z,1001.12
2017-10-23T06:19:03.972Z,1001.16
2017-10-23T06:20:04.006Z,1001.14
2017-10-23T06:21:03.939Z,1001.10
2017-10-23T06:22:04.017Z,1001.13
2017-10-23T06:23:05.751Z,1001.10
2017-10-23T06:24:03.912Z,1001.10
2017-10-23T06:25:04.623Z,1001.18
2017-10-23T06:26:03.913Z,1001.22
2017-10-23T06:27:03.863Z,1001.11
2017-10-23T06:28:03.843Z,1001.12
2017-10-23T06:29:04.131Z,1001.11
2017-10-23T06:30:18.890Z,1001.12
2017-10-23T06:31:04.145Z,1001.20
2017-10-23T06:32:03.900Z,1001.19
2017-10-23T06:33:03.794Z,1001.15
2017-10-23T06:34:03.914Z,1001.21
2017-10-23T06:35:03.834Z,1001.22
2017-10-23T06:36:03.736Z,1001.25
2017-10-23T06:37:03.811Z,1001.20
2017-10-23T06:38:03.699Z,1001.24
2017-10-23T06:39:03.692Z,1001.20
2017-10-23T06:40:04.653Z,1001.17
2017-10-23T06:41:04.212Z,1001.23
2017-10-23T06:42:03.644Z,1001.20
2017-10-23T06:48:36.480Z,1001.20
2017-10-23T06:49:36.215Z,1001.22
2017-10-23T06:50:36.480Z,1001.26
2017-10-23T06:51:36.190Z,1001.17
2017-10-23T06:52:35.929Z,1001.14
2017-10-23T06:53:35.890Z,1001.17
2017-10-23T06:54:35.697Z,1001.17
2017-10-23T06:55:36.546Z,1001.21
2017-10-23T06:56:35.606Z,1001.22
2017-10-23T06:57:36.682Z,1001.26
2017-10-23T06:58:36.388Z,1001.27
2017-10-23T06:59:35.568Z,1001.26
2017-10-23T07:00:36.027Z,1001.29
2017-10-23T07:01:35.551Z,1001.33
2017-10-23T07:02:35.645Z,1001.35
2017-10-23T07:03:35.508Z,1001.43
2017-10-23T07:04:35.490Z,1001.35
2017-10-23T07:05:35.511Z,1001.41
2017-10-23T07:06:35.525Z,1001.45
2017-10-23T07:07:35.524Z,1001.48
2017-10-23T07:08:35.433Z,1001.42
2017-10-23T07:09:37.011Z,1001.48
2017-10-23T07:10:35.399Z,1001.55
2017-10-23T07:11:35.527Z,1001.50
2017-10-23T07:12:35.378Z,1001.50
2017-10-23T07:13:35.361Z,1001.49
2017-10-23T07:14:35.343Z,1001.50
2017-10-23T07:15:36.013Z,1001.52
2017-10-23T07:16:37.043Z,1001.48
2017-10-23T07:17:35.638Z,1001.58
2017-10-23T07:18:35.415Z,1001.51
2017-10-23T07:19:35.270Z,1001.53
2017-10-23T07:20:36.007Z,1001.53
2017-10-23T07:21:35.240Z,1001.52
2017-10-23T07:22:35.301Z,1001.50
2017-10-23T07:23:49.320Z,1001.55
2017-10-23T07:24:35.218Z,1001.55
2017-10-23T07:25:35.210Z,1001.57
2017-10-23T07:26:35.392Z,1001.59
2017-10-23T07:27:35.173Z,1001.66
2017-10-23T07:28:35.126Z,1001.60
2017-10-23T07:29:36.156Z,1001.64
2017-10-23T07:30:36.063Z,1001.62
2017-10-23T07:31:35.142Z,1001.57
2017-10-23T07:32:35.104Z,1001.56
2017-10-23T07:33:36.227Z,1001.61
2017-10-23T07:34:37.097Z,1001.63
2017-10-23T07:35:35.122Z,1001.59
2017-10-23T07:36:36.411Z,1001.59
2017-10-23T07:37:35.032Z,1001.59
2017-10-23T07:38:34.988Z,1001.59
2017-10-23T07:39:39.886Z,1001.64
2017-10-23T07:40:40.768Z,1001.60
2017-10-23T07:41:36.518Z,1001.61
2017-10-23T07:42:36.559Z,1001.55
2017-10-23T07:43:36.804Z,1001.61
2017-10-23T07:44:34.907Z,1001.64
2017-10-23T07:45:34.918Z,1001.58
2017-10-23T07:46:35.103Z,1001.58
2017-10-23T07:53:58.104Z,1001.65
2017-10-23T07:54:57.675Z,1001.60
2017-10-23T07:55:56.313Z,1001.67
2017-10-23T07:56:56.210Z,1001.67
2017-10-23T07:57:56.064Z,1001.70
2017-10-23T07:58:55.303Z,1001.74
2017-10-23T07:59:55.377Z,1001.69
2017-10-23T08:00:55.621Z,1001.72
2017-10-23T08:01:55.432Z,1001.74
2017-10-23T08:02:55.357Z,1001.77
2017-10-23T08:03:55.222Z,1001.75
2017-10-23T08:04:57.113Z,1001.75
2017-10-23T08:20:02.475Z,1001.80
2017-10-23T08:21:10.295Z,1001.76
2017-10-23T08:22:02.950Z,1001.88
2017-10-23T08:23:03.087Z,1001.92
2017-10-23T08:24:02.763Z,1001.90
2017-10-23T08:25:05.181Z,1001.87
2017-10-23T08:26:04.063Z,1001.86
2017-10-23T08:27:03.952Z,1001.92
2017-10-23T08:28:02.226Z,1001.83
2017-10-23T08:29:01.990Z,1001.83
2017-10-23T08:30:01.963Z,1001.85
2017-10-23T08:31:01.931Z,1001.84
2017-10-23T08:32:02.059Z,1001.83
2017-10-23T08:33:01.940Z,1001.90
2017-10-23T08:34:02.252Z,1001.85
2017-10-23T08:35:03.161Z,1001.89
2017-10-23T08:36:08.725Z,1001.86
2017-10-23T08:37:01.833Z,1001.82
2017-10-23T08:38:02.396Z,1001.84
2017-10-23T08:39:02.511Z,1001.78
2017-10-23T08:40:02.386Z,1001.77
2017-10-23T08:41:01.874Z,1001.77
2017-10-23T08:42:01.778Z,1001.74
2017-10-23T08:43:02.497Z,1001.75
2017-10-23T08:44:01.951Z,1001.79
2017-10-23T08:45:02.044Z,1001.80
2017-10-23T08:46:02.409Z,1001.81
2017-10-23T08:50:04.073Z,1001.85
2017-10-23T08:51:24.257Z,1001.86
2017-10-23T08:53:55.423Z,1001.90
2017-10-23T08:55:00.131Z,1001.95
2017-10-23T08:55:55.218Z,1001.99
2017-10-23T08:56:55.836Z,1001.97
2017-10-23T08:57:56.214Z,1001.95
2017-10-23T08:58:55.026Z,1001.95
2017-10-23T08:59:57.836Z,1001.96
2017-10-23T09:00:54.769Z,1001.86
2017-10-23T09:01:57.716Z,1001.88
2017-10-23T09:02:55.738Z,1001.88
2017-10-23T09:03:54.712Z,1001.87
2017-10-23T09:04:55.093Z,1001.86
2017-10-23T09:05:55.859Z,1001.96
2017-10-23T09:06:54.674Z,1001.83
2017-10-23T09:07:54.667Z,1001.81
2017-10-23T09:08:55.297Z,1001.88
2017-10-23T09:09:54.745Z,1001.83
2017-10-23T09:10:54.625Z,1001.85
2017-10-23T09:11:55.205Z,1001.91
2017-10-23T09:12:54.745Z,1001.85
2017-10-23T09:13:54.572Z,1001.85
2017-10-23T09:14:54.571Z,1001.89
2017-10-23T09:15:54.655Z,1001.90
2017-10-23T09:16:54.540Z,1001.88
2017-10-23T09:17:54.583Z,1001.92
2017-10-23T09:18:54.514Z,1001.83
2017-10-23T09:19:54.486Z,1001.87
2017-10-23T09:20:54.488Z,1001.86
2017-10-23T09:21:54.461Z,1001.84
2017-10-23T09:22:54.467Z,1001.90
2017-10-23T09:23:54.891Z,1001.85
2017-10-23T09:24:55.212Z,1001.85
2017-10-23T09:25:54.406Z,1001.81
2017-10-23T09:27:07.602Z,1001.87
2017-10-23T09:27:54.751Z,1001.80
2017-10-23T09:28:54.438Z,1001.77
2017-10-23T09:29:54.688Z,1001.89
2017-10-23T09:30:54.438Z,1001.72
2017-10-23T09:31:55.084Z,1001.78
2017-10-23T09:32:56.770Z,1001.80
2017-10-23T09:33:54.626Z,1001.82
2017-10-23T09:34:54.282Z,1001.75
2017-10-23T09:35:54.635Z,1001.75
2017-10-23T09:36:54.247Z,1001.78
2017-10-23T09:37:54.246Z,1001.76
2017-10-23T09:38:54.252Z,1001.78
2017-10-23T09:39:54.210Z,1001.80
2017-10-23T09:40:54.198Z,1001.86
2017-10-23T09:41:54.738Z,1001.85
2017-10-23T09:42:54.201Z,1001.82
2017-10-23T09:43:54.288Z,1001.87
2017-10-23T09:44:54.147Z,1001.87
2017-10-23T09:45:54.122Z,1001.85
2017-10-23T09:46:54.105Z,1001.86
2017-10-23T09:47:54.390Z,1001.93
2017-10-23T09:48:54.167Z,1001.89
2017-10-23T09:49:54.798Z,1001.92
2017-10-23T09:50:54.206Z,1001.92
2017-10-23T09:51:54.057Z,1001.91
2017-10-23T09:52:54.020Z,1001.93
2017-10-23T09:53:54.382Z,1001.99
2017-10-23T09:54:53.998Z,1002.00
2017-10-23T09:55:53.974Z,1002.04
2017-10-23T09:56:53.956Z,1001.99
2017-10-23T09:57:54.746Z,1002.04
2017-10-23T09:58:53.932Z,1002.04
2017-10-23T09:59:54.274Z,1001.98
2017-10-23T10:00:53.909Z,1001.96
2017-10-23T10:01:53.895Z,1002.03
2017-10-23T10:02:53.882Z,1001.97
2017-10-23T10:03:53.868Z,1002.01
2017-10-23T10:04:53.857Z,1002.03
2017-10-23T10:05:53.875Z,1002.05
2017-10-23T10:06:53.841Z,1002.05
2017-10-23T10:07:53.870Z,1002.05
2017-10-23T10:08:53.819Z,1002.10
2017-10-23T10:09:54.482Z,1002.00
2017-10-23T10:10:53.784Z,1002.04
2017-10-23T10:11:53.745Z,1002.10
2017-10-23T10:12:54.283Z,1002.02
2017-10-23T10:13:53.888Z,1002.07
2017-10-23T10:14:53.700Z,1002.05
2017-10-23T10:15:53.693Z,1002.02
2017-10-23T10:16:53.685Z,1002.07
2017-10-23T10:17:53.660Z,1002.00
2017-10-23T10:18:53.647Z,1002.09
2017-10-23T10:19:53.782Z,1002.10
2017-10-23T10:20:53.619Z,1002.10
2017-10-23T10:21:53.604Z,1002.14
2017-10-23T10:22:53.598Z,1002.10
2017-10-23T10:23:53.586Z,1002.07
2017-10-23T10:24:53.571Z,1002.09
2017-10-23T10:25:54.753Z,1002.09
2017-10-23T10:26:53.556Z,1002.03
2017-10-23T10:27:53.530Z,1002.08
2017-10-23T10:28:53.514Z,1002.09
2017-10-23T10:29:53.498Z,1002.14
2017-10-23T10:30:53.481Z,1002.14
2017-10-23T10:31:53.531Z,1002.09
2017-10-23T10:32:53.443Z,1002.09
2017-10-23T10:33:53.438Z,1002.06
2017-10-23T10:34:53.434Z,1002.02
2017-10-23T10:35:53.421Z,1002.04
2017-10-23T10:36:53.406Z,1002.03
2017-10-23T10:37:53.492Z,1002.01
2017-10-23T10:38:53.368Z,1002.08
2017-10-23T10:39:53.357Z,1002.00
2017-10-23T10:40:53.333Z,1002.04
2017-10-23T10:41:53.320Z,1002.06
2017-10-23T10:42:55.250Z,1002.12
2017-10-23T10:43:53.370Z,1002.13
2017-10-23T10:44:53.300Z,1002.08
2017-10-23T10:45:54.570Z,1002.12
2017-10-23T10:46:53.246Z,1002.14
2017-10-23T10:47:53.238Z,1002.16
2017-10-23T10:48:53.265Z,1002.12
2017-10-23T10:49:53.337Z,1002.14
2017-10-23T10:50:53.194Z,1002.13
2017-10-23T10:51:53.183Z,1002.10
2017-10-23T10:52:53.370Z,1002.12
2017-10-23T10:53:53.158Z,1002.04
2017-10-23T10:54:53.140Z,1002.12
2017-10-23T10:55:53.303Z,1002.09
2017-10-23T10:56:53.107Z,1002.10
2017-10-23T10:57:53.099Z,1002.08
2017-10-23T10:58:53.179Z,1002.10
2017-10-23T10:59:53.065Z,1002.10
2017-10-23T11:00:53.057Z,1002.03
2017-10-23T11:01:53.768Z,1002.06
2017-10-23T11:02:53.032Z,1002.05
2017-10-23T11:03:53.037Z,1002.04
2017-10-23T11:04:53.047Z,1002.03
2017-10-23T11:05:53.156Z,1002.08
2017-10-23T11:06:53.036Z,1002.07
2017-10-23T11:07:53.027Z,1002.06
2017-10-23T11:08:52.945Z,1002.03
2017-10-23T11:09:52.926Z,1002.09
2017-10-23T11:10:52.916Z,1002.05
2017-10-23T11:11:52.916Z,1002.04
2017-10-23T11:12:53.170Z,1001.97
2017-10-23T11:13:52.912Z,1002.03
2017-10-23T11:14:52.861Z,1002.04
2017-10-23T11:15:52.848Z,1002.05
2017-10-23T11:16:53.547Z,1002.06
2017-10-23T11:17:52.920Z,1002.10
2017-10-23T11:18:52.796Z,1002.03
2017-10-23T11:19:52.775Z,1002.01
2017-10-23T11:20:52.903Z,1002.10
2017-10-23T11:21:52.755Z,1002.08
2017-10-23T11:22:52.813Z,1001.98
2017-10-23T11:23:53.272Z,1002.12
2017-10-23T11:24:52.729Z,1001.99
2017-10-23T11:25:52.709Z,1002.01
2017-10-23T11:26:52.698Z,1002.06
2017-10-23T11:27:52.668Z,1002.04
2017-10-23T11:28:52.808Z,1002.01
2017-10-23T11:29:52.645Z,1002.05
2017-10-23T11:30:52.821Z,1002.04
2017-10-23T11:31:53.570Z,1002.12
2017-10-23T11:32:52.646Z,1002.10
2017-10-23T11:33:52.688Z,1002.06
2017-10-23T11:34:53.097Z,1001.99
2017-10-23T11:35:52.599Z,1001.99
2017-10-23T11:36:52.555Z,1002.09
2017-10-23T11:37:53.268Z,1002.11
2017-10-23T11:38:53.259Z,1002.07
2017-10-23T11:39:52.514Z,1002.05
2017-10-23T11:40:52.576Z,1002.10
2017-10-23T11:41:52.485Z,1002.03
2017-10-23T11:42:52.608Z,1002.06
2017-10-23T11:43:52.524Z,1002.07
2017-10-23T11:44:52.433Z,1002.02
2017-10-23T11:45:53.260Z,1002.02
2017-10-23T11:46:52.545Z,1002.11
2017-10-23T11:47:52.391Z,1002.05
2017-10-23T11:48:52.471Z,1002.09
2017-10-23T11:49:52.397Z,1002.03
2017-10-23T11:50:53.264Z,1002.03
2017-10-23T11:51:52.401Z,1002.01
2017-10-23T11:52:52.690Z,1002.06
2017-10-23T11:53:52.330Z,1002.04
2017-10-23T11:54:52.297Z,1002.02
2017-10-23T11:55:52.271Z,1002.03
2017-10-23T11:56:52.262Z,1001.99
2017-10-23T11:57:52.242Z,1001.96
2017-10-23T11:58:52.797Z,1001.97
2017-10-23T11:59:52.215Z,1002.03
2017-10-23T12:00:54.941Z,1001.94
2017-10-23T12:01:52.188Z,1001.94
2017-10-23T12:02:52.326Z,1001.95
2017-10-23T12:03:52.229Z,1001.91
2017-10-23T12:04:52.137Z,1002.00
2017-10-23T12:05:52.537Z,1001.99
2017-10-23T12:06:52.108Z,1002.02
2017-10-23T12:07:52.777Z,1002.05
2017-10-23T12:08:52.130Z,1002.03
2017-10-23T12:09:52.094Z,1002.00
2017-10-23T12:10:52.055Z,1002.04
2017-10-23T12:11:52.044Z,1001.99
2017-10-23T12:12:52.099Z,1001.99
2017-10-23T12:13:52.017Z,1001.68
2017-10-23T12:14:52.010Z,1002.00
2017-10-23T12:15:51.995Z,1002.06
2017-10-23T12:16:51.981Z,1002.00
2017-10-23T12:17:51.987Z,1002.00
2017-10-23T12:18:52.830Z,1002.03
2017-10-23T12:19:51.934Z,1002.06
2017-10-23T12:20:51.953Z,1002.03
2017-10-23T12:21:52.041Z,1002.03
2017-10-23T12:22:52.772Z,1002.02
2017-10-23T12:23:51.949Z,1001.98
2017-10-23T12:24:51.937Z,1002.01
2017-10-23T12:25:52.903Z,1002.00
2017-10-23T12:26:52.117Z,1001.98
2017-10-23T12:27:51.852Z,1002.09
2017-10-23T12:28:51.812Z,1002.05
2017-10-23T12:29:51.787Z,1002.09
2017-10-23T12:30:51.842Z,1002.07
2017-10-23T12:31:51.779Z,1002.03
2017-10-23T12:32:51.745Z,1002.08
2017-10-23T12:33:51.736Z,1002.03
2017-10-23T12:34:51.709Z,1002.08
2017-10-23T12:35:51.709Z,1002.08
2017-10-23T12:36:51.790Z,1002.10
2017-10-23T12:37:51.716Z,1002.08
2017-10-23T12:38:51.657Z,1002.10
2017-10-23T12:39:51.644Z,1002.03
2017-10-23T12:40:51.620Z,1002.02
2017-10-23T12:41:51.998Z,1002.08
2017-10-23T12:42:51.924Z,1002.06
2017-10-23T12:43:52.452Z,1002.03